Time;durP1;ratioP1;P1;durP2;ratioP2;P2;SDS_P1;SDS_P2;PMS_P1;PMS_P2;Temp;Humidity;BMP_temperature;BMP_pressure;BME280_temperature;BME280_humidity;BME280_pressure;Samples;Min_cycle;Max_cycle;Signal;HPM_P1;HPM_P2
2021/12/27 00:02:13;;;;;;;17.90;9.87;;;-4.10;99.90;;;;;;5027970;28;20208;-71
2021/12/27 00:04:40;;;;;;;17.30;9.63;;;-4.10;99.90;;;;;;5027653;28;20208;-71
2021/12/27 00:07:07;;;;;;;16.47;9.03;;;-4.20;99.90;;;;;;5028059;28;20208;-71
2021/12/27 00:09:35;;;;;;;19.43;10.63;;;-4.20;99.90;;;;;;5028195;28;20296;-71
2021/12/27 00:12:02;;;;;;;17.73;9.57;;;-4.20;99.90;;;;;;5027822;28;20294;-71
2021/12/27 00:14:28;;;;;;;16.63;9.73;;;-4.20;99.90;;;;;;5028042;28;20236;-71
2021/12/27 00:16:56;;;;;;;17.77;10.70;;;-4.20;99.90;;;;;;5027229;28;20712;-71
2021/12/27 00:19:23;;;;;;;14.00;9.40;;;-4.30;99.90;;;;;;5028525;28;20208;-72
2021/12/27 00:21:50;;;;;;;21.23;10.47;;;-4.20;99.90;;;;;;5032172;28;20690;-71
2021/12/27 00:24:17;;;;;;;18.47;11.20;;;-4.20;99.90;;;;;;5032039;28;20215;-70
2021/12/27 00:26:44;;;;;;;21.07;10.20;;;-4.20;99.90;;;;;;5031702;28;20690;-69
2021/12/27 00:29:11;;;;;;;15.40;9.37;;;-4.30;99.90;;;;;;5031506;28;20208;-71
2021/12/27 00:31:37;;;;;;;16.53;9.80;;;-4.20;99.90;;;;;;5031482;28;20757;-70
2021/12/27 00:34:05;;;;;;;18.90;11.07;;;-4.20;99.90;;;;;;5031475;28;20302;-69
2021/12/27 00:36:32;;;;;;;20.67;10.50;;;-4.10;99.90;;;;;;5031637;28;20208;-70
2021/12/27 00:38:59;;;;;;;18.03;10.37;;;-4.20;99.90;;;;;;5031209;28;20252;-70
2021/12/27 00:41:25;;;;;;;17.20;10.23;;;-4.20;99.90;;;;;;5031645;28;20228;-71
2021/12/27 00:43:52;;;;;;;17.70;10.23;;;-4.20;99.90;;;;;;5031775;28;20212;-71
2021/12/27 00:46:19;;;;;;;17.80;10.87;;;-4.10;99.90;;;;;;5031351;28;20213;-71
2021/12/27 00:48:45;;;;;;;19.07;11.50;;;-4.20;99.90;;;;;;5031651;28;20201;-71
2021/12/27 00:51:13;;;;;;;19.80;11.27;;;-4.20;99.90;;;;;;5031062;28;20680;-71
2021/12/27 00:53:40;;;;;;;18.30;10.37;;;-4.30;99.90;;;;;;5031132;28;20311;-70
2021/12/27 00:56:07;;;;;;;22.50;11.30;;;-4.30;99.90;;;;;;5031264;28;20212;-71
2021/12/27 00:58:34;;;;;;;21.70;12.07;;;-4.30;99.90;;;;;;5031605;28;20215;-71
2021/12/27 01:01:01;;;;;;;16.47;11.10;;;-4.30;99.90;;;;;;5031317;28;20259;-71
2021/12/27 01:03:28;;;;;;;19.33;11.93;;;-4.30;99.90;;;;;;5031526;28;20247;-71
2021/12/27 01:05:55;;;;;;;19.87;11.13;;;-4.30;99.90;;;;;;5029947;28;20208;-70
2021/12/27 01:08:23;;;;;;;20.47;10.83;;;-4.30;99.90;;;;;;5030908;28;20213;-71
2021/12/27 01:11:12;;;;;;;18.50;10.93;;;-4.40;99.90;;;;;;5031244;28;20220;-71
2021/12/27 01:13:42;;;;;;;19.10;11.00;;;-4.30;99.90;;;;;;5030159;28;20753;-71
2021/12/27 01:16:12;;;;;;;20.67;11.43;;;-4.30;99.90;;;;;;5030983;28;20582;-71
2021/12/27 01:18:43;;;;;;;19.30;11.63;;;-4.30;99.90;;;;;;5031462;28;20212;-71
2021/12/27 01:21:10;;;;;;;21.00;11.37;;;-4.30;99.90;;;;;;5030895;28;20817;-71
2021/12/27 01:23:39;;;;;;;22.80;11.47;;;-4.40;99.90;;;;;;5031245;28;20213;-72
2021/12/27 01:26:09;;;;;;;23.10;11.83;;;-4.40;99.90;;;;;;5031069;28;20220;-72
2021/12/27 01:28:36;;;;;;;20.07;11.87;;;-4.50;99.90;;;;;;5031178;28;20216;-72
2021/12/27 01:31:05;;;;;;;20.93;11.87;;;-4.50;99.90;;;;;;5031109;28;20212;-72
2021/12/27 01:33:32;;;;;;;21.10;11.50;;;-4.50;99.90;;;;;;5030889;28;20240;-72
2021/12/27 01:36:00;;;;;;;20.30;11.30;;;-4.50;99.90;;;;;;5030517;28;20656;-71
2021/12/27 01:38:26;;;;;;;17.83;11.67;;;-4.40;99.90;;;;;;5030797;28;20237;-72
2021/12/27 01:40:57;;;;;;;20.97;12.27;;;-4.40;99.90;;;;;;5030686;28;20229;-71
2021/12/27 01:43:26;;;;;;;21.43;11.80;;;-4.30;99.90;;;;;;5030745;28;20205;-71
2021/12/27 01:45:55;;;;;;;24.77;12.93;;;-4.30;99.90;;;;;;5030742;28;20581;-72
2021/12/27 01:48:25;;;;;;;22.20;12.50;;;-4.30;99.90;;;;;;5030836;28;20209;-71
2021/12/27 01:50:53;;;;;;;18.93;12.07;;;-4.30;99.90;;;;;;5030318;28;20299;-71
2021/12/27 01:53:21;;;;;;;21.93;12.33;;;-4.30;99.90;;;;;;5030545;28;20271;-71
2021/12/27 01:55:49;;;;;;;21.87;12.23;;;-4.30;99.90;;;;;;5030614;28;20258;-71
2021/12/27 01:58:18;;;;;;;21.10;12.60;;;-4.30;99.90;;;;;;5030438;28;20209;-71
2021/12/27 02:00:47;;;;;;;20.37;12.67;;;-4.30;99.90;;;;;;5030259;28;20221;-70
2021/12/27 02:03:15;;;;;;;17.87;11.93;;;-4.30;99.90;;;;;;5029826;28;20573;-70
2021/12/27 02:05:42;;;;;;;23.20;12.70;;;-4.30;99.90;;;;;;5030113;28;20211;-70
2021/12/27 02:08:09;;;;;;;27.43;13.70;;;-4.30;99.90;;;;;;5030148;28;20204;-70
2021/12/27 02:10:36;;;;;;;23.07;12.50;;;-4.40;99.90;;;;;;5030086;28;20212;-70
2021/12/27 02:13:03;;;;;;;20.83;12.80;;;-4.40;99.90;;;;;;5030023;28;20263;-71
2021/12/27 02:15:31;;;;;;;21.90;13.03;;;-4.30;99.90;;;;;;5030090;28;20240;-71
2021/12/27 02:17:58;;;;;;;22.57;13.50;;;-4.30;99.90;;;;;;5029648;28;20259;-71
2021/12/27 02:20:28;;;;;;;25.93;13.20;;;-4.30;99.90;;;;;;5030103;28;20263;-71
2021/12/27 02:23:00;;;;;;;27.70;12.83;;;-4.40;99.90;;;;;;5029968;28;20201;-71
2021/12/27 02:25:28;;;;;;;20.13;12.43;;;-4.30;99.90;;;;;;5030254;28;20620;-71
2021/12/27 02:27:55;;;;;;;21.60;12.77;;;-4.30;99.90;;;;;;5030080;28;20209;-71
2021/12/27 02:30:23;;;;;;;23.70;13.67;;;-4.30;99.90;;;;;;5029523;28;20679;-71
2021/12/27 02:32:51;;;;;;;23.57;12.87;;;-4.30;99.90;;;;;;5030164;28;20209;-71
2021/12/27 02:35:21;;;;;;;25.73;13.37;;;-4.20;99.90;;;;;;5029436;28;20224;-71
2021/12/27 02:37:49;;;;;;;22.93;12.60;;;-4.20;99.90;;;;;;5029893;28;20225;-70
2021/12/27 02:40:16;;;;;;;25.53;13.07;;;-4.20;99.90;;;;;;5029128;28;20267;-70
2021/12/27 02:42:54;;;;;;;21.70;12.63;;;-4.20;99.90;;;;;;5029383;28;20216;-70
2021/12/27 02:45:21;;;;;;;22.23;12.87;;;-4.20;99.90;;;;;;5029384;28;20730;-71
2021/12/27 02:47:48;;;;;;;23.97;13.33;;;-4.20;99.90;;;;;;5029467;28;20275;-70
2021/12/27 02:50:15;;;;;;;21.13;12.20;;;-4.20;99.90;;;;;;5029241;28;20275;-70
2021/12/27 02:52:41;;;;;;;24.37;13.00;;;-4.20;99.90;;;;;;5029382;28;20262;-70
2021/12/27 02:55:12;;;;;;;25.37;13.27;;;-4.20;99.90;;;;;;5028567;28;20228;-70
2021/12/27 02:57:38;;;;;;;21.77;12.93;;;-4.20;99.90;;;;;;5016693;28;20224;-70
2021/12/27 03:00:11;;;;;;;24.37;13.57;;;-4.20;99.90;;;;;;5020017;28;20484;-70
2021/12/27 03:02:38;;;;;;;24.60;13.93;;;-4.20;99.90;;;;;;5024914;28;20262;-70
2021/12/27 03:05:05;;;;;;;24.80;13.47;;;-4.20;99.90;;;;;;5024113;28;20213;-70
2021/12/27 03:07:31;;;;;;;24.93;13.57;;;-4.20;99.90;;;;;;5009320;28;20208;-70
2021/12/27 03:09:59;;;;;;;20.63;13.07;;;-4.20;99.90;;;;;;5009382;28;20201;-70
2021/12/27 03:12:27;;;;;;;24.97;14.37;;;-4.10;99.90;;;;;;5009455;28;20209;-70
2021/12/27 03:14:53;;;;;;;23.37;13.73;;;-4.10;99.90;;;;;;5008987;28;20245;-70
2021/12/27 03:17:20;;;;;;;20.83;12.10;;;-4.10;99.90;;;;;;5009220;28;20209;-71
2021/12/27 03:19:47;;;;;;;24.03;13.87;;;-4.10;99.90;;;;;;5009379;28;20205;-71
2021/12/27 03:22:13;;;;;;;27.10;14.33;;;-4.10;99.90;;;;;;5009198;28;20283;-71
2021/12/27 03:24:40;;;;;;;26.47;14.60;;;-4.10;99.90;;;;;;5009246;28;20259;-71
2021/12/27 03:27:06;;;;;;;25.80;14.40;;;-4.10;99.90;;;;;;5009203;28;20205;-71
2021/12/27 03:29:34;;;;;;;27.00;13.87;;;-4.10;99.90;;;;;;5009112;28;20201;-71
2021/12/27 03:32:02;;;;;;;25.53;14.00;;;-4.10;99.90;;;;;;5008755;28;20711;-71
2021/12/27 03:34:31;;;;;;;24.77;13.50;;;-4.10;99.90;;;;;;5009083;28;20237;-71
2021/12/27 03:36:58;;;;;;;22.03;12.87;;;-4.10;99.90;;;;;;5008865;28;20320;-71
2021/12/27 03:39:25;;;;;;;24.03;13.57;;;-4.10;99.90;;;;;;5008438;28;20237;-71
2021/12/27 03:41:52;;;;;;;25.40;14.27;;;-4.10;99.90;;;;;;5008943;28;20209;-69
2021/12/27 03:44:18;;;;;;;22.77;13.80;;;-4.10;99.90;;;;;;5008774;28;20232;-70
2021/12/27 03:46:46;;;;;;;26.83;14.33;;;-4.10;99.90;;;;;;5008882;28;20240;-70
2021/12/27 03:49:13;;;;;;;25.63;14.20;;;-4.10;99.90;;;;;;5008798;28;20209;-70
2021/12/27 03:51:43;;;;;;;25.33;14.07;;;-4.10;99.90;;;;;;5008642;28;20256;-70
2021/12/27 03:54:10;;;;;;;25.77;13.90;;;-4.10;99.90;;;;;;5007615;28;20210;-70
2021/12/27 03:56:36;;;;;;;24.73;14.03;;;-4.10;99.90;;;;;;5008748;28;20209;-70
2021/12/27 03:59:20;;;;;;;24.50;14.00;;;-4.10;99.90;;;;;;5008293;28;20288;-70
2021/12/27 04:01:48;;;;;;;25.23;13.67;;;-4.10;99.90;;;;;;5008501;28;20200;-70
2021/12/27 04:04:15;;;;;;;24.33;12.90;;;-4.10;99.90;;;;;;5008025;28;20258;-70
2021/12/27 04:06:42;;;;;;;25.03;13.93;;;-4.10;99.90;;;;;;5008082;28;20217;-70
2021/12/27 04:09:09;;;;;;;26.13;13.50;;;-4.10;99.90;;;;;;5008262;28;20256;-70
2021/12/27 04:11:35;;;;;;;28.83;13.83;;;-4.10;99.90;;;;;;5008380;28;20225;-71
2021/12/27 04:14:02;;;;;;;23.97;13.47;;;-4.10;99.90;;;;;;5008053;28;20254;-71
2021/12/27 04:16:29;;;;;;;20.90;13.33;;;-4.10;99.90;;;;;;5008365;28;20225;-70
2021/12/27 04:18:57;;;;;;;24.50;14.17;;;-4.00;99.90;;;;;;5008192;28;20205;-71
2021/12/27 04:21:24;;;;;;;25.57;14.77;;;-4.00;99.90;;;;;;5007823;28;20232;-71
2021/12/27 04:23:50;;;;;;;20.70;13.70;;;-4.00;99.90;;;;;;5007860;28;20221;-71
2021/12/27 04:26:17;;;;;;;25.73;13.67;;;-4.00;99.90;;;;;;5008126;28;20268;-71
2021/12/27 04:28:44;;;;;;;25.80;14.40;;;-4.10;99.90;;;;;;5008073;28;20209;-71
2021/12/27 04:31:11;;;;;;;27.67;14.57;;;-4.10;99.90;;;;;;5007972;28;20217;-71
2021/12/27 04:33:38;;;;;;;26.37;14.03;;;-4.10;99.90;;;;;;5008066;28;20221;-71
2021/12/27 04:36:09;;;;;;;26.57;14.10;;;-4.10;99.90;;;;;;5007710;28;20266;-71
2021/12/27 04:38:37;;;;;;;25.10;14.23;;;-4.10;99.90;;;;;;5007959;28;20252;-71
2021/12/27 04:41:08;;;;;;;28.03;13.70;;;-4.00;99.90;;;;;;5007995;28;20222;-71
2021/12/27 04:43:34;;;;;;;26.70;14.37;;;-4.00;99.90;;;;;;5008066;28;20216;-71
2021/12/27 04:46:01;;;;;;;25.43;14.37;;;-4.00;99.90;;;;;;5007941;28;20797;-70
2021/12/27 04:48:28;;;;;;;25.70;14.50;;;-4.00;99.90;;;;;;5008202;28;20247;-71
2021/12/27 04:50:55;;;;;;;26.83;14.20;;;-4.00;99.90;;;;;;5007970;28;20214;-71
2021/12/27 04:53:23;;;;;;;24.23;14.80;;;-4.00;99.90;;;;;;5007819;28;20665;-71
2021/12/27 04:55:50;;;;;;;23.43;13.67;;;-4.00;99.90;;;;;;5008053;28;21087;-71
2021/12/27 04:58:20;;;;;;;28.17;14.97;;;-4.00;99.90;;;;;;5007928;28;20279;-71
2021/12/27 05:00:47;;;;;;;29.87;14.53;;;-4.00;99.90;;;;;;5008155;28;20221;-70
2021/12/27 05:03:14;;;;;;;25.17;14.47;;;-4.00;99.90;;;;;;5007985;28;20201;-70
2021/12/27 05:05:44;;;;;;;25.10;14.73;;;-4.00;99.90;;;;;;5008698;28;20209;-71
2021/12/27 05:08:11;;;;;;;28.83;15.20;;;-4.00;99.90;;;;;;5011545;28;20232;-70
2021/12/27 05:10:39;;;;;;;27.10;14.27;;;-3.90;99.90;;;;;;5011577;28;20305;-70
2021/12/27 05:13:06;;;;;;;24.40;14.23;;;-3.90;99.90;;;;;;5011439;28;20264;-69
2021/12/27 05:15:32;;;;;;;23.10;14.03;;;-3.90;99.90;;;;;;5011243;28;20295;-69
2021/12/27 05:17:59;;;;;;;25.93;14.03;;;-3.90;99.90;;;;;;5011256;28;20262;-69
2021/12/27 05:20:26;;;;;;;27.73;15.03;;;-3.90;99.90;;;;;;5011344;28;20217;-70
2021/12/27 05:22:52;;;;;;;27.67;14.87;;;-4.00;99.90;;;;;;5011201;28;20244;-69
2021/12/27 05:25:19;;;;;;;24.03;13.50;;;-3.90;99.90;;;;;;5011386;28;20206;-69
2021/12/27 05:27:47;;;;;;;22.53;13.60;;;-3.90;99.90;;;;;;5011655;28;20213;-72
2021/12/27 05:30:15;;;;;;;27.90;14.80;;;-3.90;99.90;;;;;;5011295;28;20214;-72
2021/12/27 05:32:43;;;;;;;26.80;14.37;;;-3.90;99.90;;;;;;5011300;28;20213;-71
2021/12/27 05:35:11;;;;;;;21.33;14.30;;;-3.90;99.90;;;;;;5011147;28;20252;-71
2021/12/27 05:37:38;;;;;;;29.47;15.53;;;-3.90;99.90;;;;;;5010878;28;20228;-70
2021/12/27 05:40:09;;;;;;;24.77;14.80;;;-3.90;99.90;;;;;;5010348;28;20634;-70
2021/12/27 05:42:36;;;;;;;21.80;13.97;;;-3.90;99.90;;;;;;5011045;28;20202;-70
2021/12/27 05:45:06;;;;;;;24.90;13.93;;;-3.80;99.90;;;;;;5010846;28;20205;-71
2021/12/27 05:47:33;;;;;;;26.47;15.57;;;-3.80;99.90;;;;;;5010916;28;20268;-72
2021/12/27 05:50:00;;;;;;;25.07;13.93;;;-3.80;99.90;;;;;;5010833;28;20209;-71
2021/12/27 05:52:26;;;;;;;26.60;14.20;;;-3.80;99.90;;;;;;5010938;28;20205;-72
2021/12/27 05:54:53;;;;;;;26.20;14.43;;;-3.80;99.90;;;;;;5010809;28;20225;-72
2021/12/27 05:57:20;;;;;;;24.77;14.53;;;-3.80;99.90;;;;;;5010891;28;20790;-71
2021/12/27 05:59:47;;;;;;;25.67;14.83;;;-3.80;99.90;;;;;;5010736;28;20283;-72
2021/12/27 06:02:15;;;;;;;27.93;14.37;;;-3.70;99.90;;;;;;5010411;28;20260;-69
2021/12/27 06:04:42;;;;;;;25.27;14.87;;;-3.70;99.90;;;;;;5010595;28;20233;-69
2021/12/27 06:07:08;;;;;;;25.83;14.40;;;-3.70;99.90;;;;;;5010345;28;20210;-69
2021/12/27 06:09:35;;;;;;;25.73;15.13;;;-3.70;99.90;;;;;;5010498;28;20262;-69
2021/12/27 06:12:02;;;;;;;25.13;13.70;;;-3.70;99.90;;;;;;5010434;28;20214;-69
2021/12/27 06:14:28;;;;;;;26.13;14.80;;;-3.70;99.90;;;;;;5010321;28;20229;-69
2021/12/27 06:16:55;;;;;;;23.10;13.90;;;-3.70;99.90;;;;;;5009857;28;20237;-69
2021/12/27 06:19:23;;;;;;;25.37;14.57;;;-3.70;99.90;;;;;;5009824;28;20734;-69
2021/12/27 06:21:51;;;;;;;23.37;13.97;;;-3.70;99.90;;;;;;5010224;28;20265;-69
2021/12/27 06:24:17;;;;;;;25.00;14.20;;;-3.60;99.90;;;;;;5010540;28;20202;-71
2021/12/27 06:26:44;;;;;;;24.43;14.83;;;-3.60;99.90;;;;;;5010290;28;20259;-71
2021/12/27 06:29:11;;;;;;;26.27;15.23;;;-3.60;99.90;;;;;;5009871;28;20256;-71
2021/12/27 06:31:37;;;;;;;28.20;14.53;;;-3.60;99.90;;;;;;5010053;28;20218;-71
2021/12/27 06:34:04;;;;;;;24.70;14.80;;;-3.50;99.90;;;;;;5010040;28;20263;-71
2021/12/27 06:36:34;;;;;;;24.50;14.40;;;-3.50;99.90;;;;;;5009819;28;20236;-71
2021/12/27 06:39:01;;;;;;;24.53;13.93;;;-3.50;99.90;;;;;;5009292;28;20730;-70
2021/12/27 06:41:28;;;;;;;25.63;14.50;;;-3.50;99.90;;;;;;5009942;28;20209;-70
2021/12/27 06:43:55;;;;;;;24.70;14.13;;;-3.40;99.90;;;;;;5009560;28;20665;-69
2021/12/27 06:46:21;;;;;;;25.90;14.77;;;-3.50;99.90;;;;;;5009833;28;20248;-70
2021/12/27 06:48:48;;;;;;;25.00;13.97;;;-3.50;99.90;;;;;;5009900;28;20205;-70
2021/12/27 06:51:15;;;;;;;24.47;14.67;;;-3.40;99.90;;;;;;5009503;28;20267;-71
2021/12/27 06:53:43;;;;;;;22.97;14.60;;;-3.40;99.90;;;;;;5009631;28;20800;-70
2021/12/27 06:56:09;;;;;;;21.43;13.17;;;-3.40;99.90;;;;;;5009579;28;20238;-69
2021/12/27 06:58:36;;;;;;;26.20;14.97;;;-3.40;99.90;;;;;;5009212;28;20649;-70
2021/12/27 07:01:05;;;;;;;28.97;14.87;;;-3.40;99.90;;;;;;5009498;28;20213;-70
2021/12/27 07:03:32;;;;;;;24.73;14.93;;;-3.40;99.90;;;;;;5009669;28;20225;-69
2021/12/27 07:05:59;;;;;;;28.07;15.23;;;-3.40;99.90;;;;;;5009356;28;20209;-69
2021/12/27 07:08:26;;;;;;;24.57;14.40;;;-3.40;99.90;;;;;;5009419;28;20206;-69
2021/12/27 07:10:55;;;;;;;31.30;15.20;;;-3.30;99.90;;;;;;5009328;28;20210;-69
2021/12/27 07:13:22;;;;;;;26.13;15.00;;;-3.40;99.90;;;;;;5009318;28;20236;-69
2021/12/27 07:15:48;;;;;;;25.07;14.37;;;-3.40;99.90;;;;;;5009032;28;20229;-70
2021/12/27 07:18:22;;;;;;;27.73;14.97;;;-3.30;99.90;;;;;;5009115;28;20275;-70
2021/12/27 07:20:49;;;;;;;27.03;14.83;;;-3.30;99.90;;;;;;5009154;28;20194;-70
2021/12/27 07:23:16;;;;;;;23.23;14.30;;;-3.30;99.90;;;;;;5009316;28;20272;-70
2021/12/27 07:25:43;;;;;;;27.93;14.50;;;-3.30;99.90;;;;;;5009066;28;20218;-69
2021/12/27 07:28:10;;;;;;;26.43;14.57;;;-3.20;99.90;;;;;;5009093;28;20266;-70
2021/12/27 07:30:37;;;;;;;24.57;14.63;;;-3.30;99.90;;;;;;5008986;28;20660;-71
2021/12/27 07:33:04;;;;;;;23.20;14.27;;;-3.30;99.90;;;;;;5008787;28;20209;-70
2021/12/27 07:35:31;;;;;;;27.57;14.77;;;-3.30;99.90;;;;;;5008980;28;20225;-70
2021/12/27 07:37:57;;;;;;;23.17;14.57;;;-3.20;99.90;;;;;;5008796;28;20622;-70
2021/12/27 07:40:24;;;;;;;28.07;14.93;;;-3.20;99.90;;;;;;5008435;28;20726;-70
2021/12/27 07:42:51;;;;;;;25.70;14.10;;;-3.20;99.90;;;;;;5008660;28;20728;-70
2021/12/27 07:45:19;;;;;;;21.73;14.50;;;-3.20;99.90;;;;;;5008539;28;20677;-71
2021/12/27 07:47:45;;;;;;;24.97;14.57;;;-3.20;99.90;;;;;;5008928;28;20206;-71
2021/12/27 07:50:12;;;;;;;26.17;15.40;;;-3.20;99.90;;;;;;5008928;28;20206;-71
2021/12/27 07:52:39;;;;;;;24.10;14.67;;;-3.20;99.90;;;;;;5008722;28;20222;-72
2021/12/27 07:55:06;;;;;;;29.47;15.97;;;-3.10;99.90;;;;;;5008736;28;20250;-71
2021/12/27 07:57:33;;;;;;;23.40;15.03;;;-3.10;99.90;;;;;;5008595;28;20242;-71
2021/12/27 08:00:00;;;;;;;25.50;14.80;;;-3.10;99.90;;;;;;5008846;28;20292;-71
2021/12/27 08:02:29;;;;;;;23.67;15.20;;;-3.10;99.90;;;;;;5008438;28;20206;-70
2021/12/27 08:04:56;;;;;;;27.27;15.37;;;-3.10;99.90;;;;;;5008329;28;20254;-70
2021/12/27 08:07:23;;;;;;;28.27;15.30;;;-3.10;99.90;;;;;;5008283;28;20615;-71
2021/12/27 08:09:49;;;;;;;25.73;14.33;;;-3.10;99.90;;;;;;5008537;28;20252;-70
2021/12/27 08:12:16;;;;;;;25.27;15.23;;;-3.10;99.90;;;;;;5008296;28;20624;-70
2021/12/27 08:14:43;;;;;;;22.57;14.57;;;-3.00;99.90;;;;;;5008665;28;20292;-70
2021/12/27 08:17:09;;;;;;;25.83;15.30;;;-3.00;99.90;;;;;;5008391;28;20278;-70
2021/12/27 08:19:37;;;;;;;24.53;14.97;;;-3.00;99.90;;;;;;5008167;28;20226;-70
2021/12/27 08:22:04;;;;;;;26.37;15.57;;;-3.00;99.90;;;;;;5008164;28;20207;-70
2021/12/27 08:24:31;;;;;;;22.53;13.87;;;-3.00;99.90;;;;;;5008488;28;20209;-70
2021/12/27 08:27:02;;;;;;;26.90;16.03;;;-2.90;99.90;;;;;;5008281;28;20257;-70
2021/12/27 08:29:29;;;;;;;24.97;14.53;;;-2.90;99.90;;;;;;5008305;28;20261;-70
2021/12/27 08:31:56;;;;;;;24.73;14.93;;;-2.90;99.90;;;;;;5008025;28;20669;-70
2021/12/27 08:34:22;;;;;;;25.47;14.57;;;-2.90;99.90;;;;;;5008434;28;20210;-70
2021/12/27 08:36:50;;;;;;;27.13;15.03;;;-2.80;99.90;;;;;;5007688;28;20700;-70
2021/12/27 08:39:17;;;;;;;24.77;14.97;;;-2.80;99.90;;;;;;5007610;28;20308;-70
2021/12/27 08:41:43;;;;;;;25.23;14.73;;;-2.90;99.90;;;;;;5010734;28;20265;-71
2021/12/27 08:44:10;;;;;;;21.87;14.90;;;-2.80;99.90;;;;;;5012201;28;20288;-70
2021/12/27 08:46:37;;;;;;;25.73;14.30;;;-2.80;99.90;;;;;;5012085;28;21070;-71
2021/12/27 08:49:04;;;;;;;25.67;14.70;;;-2.80;99.90;;;;;;5012041;28;20240;-70
2021/12/27 08:51:31;;;;;;;24.67;14.87;;;-2.80;99.90;;;;;;5012145;28;20215;-71
2021/12/27 08:53:59;;;;;;;24.80;15.77;;;-2.70;99.90;;;;;;5011912;28;20210;-71
2021/12/27 08:56:26;;;;;;;25.63;15.17;;;-2.70;99.90;;;;;;5012040;28;20243;-71
2021/12/27 08:58:54;;;;;;;30.33;15.33;;;-2.70;99.90;;;;;;5011990;28;20227;-70
2021/12/27 09:01:21;;;;;;;29.73;15.60;;;-2.70;99.90;;;;;;5011855;28;20633;-70
2021/12/27 09:03:48;;;;;;;25.33;15.30;;;-2.70;99.90;;;;;;5012025;28;20210;-70
2021/12/27 09:06:15;;;;;;;29.30;16.13;;;-2.70;99.90;;;;;;5011613;28;20222;-70
2021/12/27 09:08:42;;;;;;;27.03;16.03;;;-2.60;99.90;;;;;;5011781;28;20317;-71
2021/12/27 09:11:10;;;;;;;25.57;15.07;;;-2.60;99.90;;;;;;5011869;28;20286;-71
2021/12/27 09:13:37;;;;;;;24.23;15.37;;;-2.60;99.90;;;;;;5015274;28;21029;-71
2021/12/27 09:16:10;;;;;;;26.80;15.17;;;-2.60;99.90;;;;;;5029305;28;20314;-71
2021/12/27 09:18:37;;;;;;;27.70;15.40;;;-2.60;99.90;;;;;;5030934;28;20204;-71
2021/12/27 09:21:07;;;;;;;26.93;15.53;;;-2.50;99.90;;;;;;5030564;28;20656;-71
2021/12/27 09:23:34;;;;;;;27.20;15.43;;;-2.50;99.90;;;;;;5031076;28;20196;-71
2021/12/27 09:26:01;;;;;;;23.70;14.97;;;-2.50;99.90;;;;;;5030575;28;20664;-72
2021/12/27 09:28:29;;;;;;;23.90;13.93;;;-2.50;99.90;;;;;;5028368;28;20200;-71
2021/12/27 09:30:56;;;;;;;23.70;14.30;;;-2.50;99.90;;;;;;5030619;28;20199;-70
2021/12/27 09:33:23;;;;;;;28.70;14.73;;;-2.40;99.90;;;;;;5030728;28;20198;-70
2021/12/27 09:35:50;;;;;;;26.33;15.10;;;-2.40;99.90;;;;;;5030331;28;20218;-70
2021/12/27 09:38:17;;;;;;;25.73;14.90;;;-2.40;99.90;;;;;;5029603;28;20709;-70
2021/12/27 09:40:44;;;;;;;26.50;15.53;;;-2.30;99.90;;;;;;5030396;28;20191;-70
2021/12/27 09:43:11;;;;;;;24.97;15.10;;;-2.30;99.90;;;;;;5029971;28;21001;-70
2021/12/27 09:45:39;;;;;;;27.37;15.50;;;-2.30;99.90;;;;;;5025247;28;20245;-70
2021/12/27 09:48:06;;;;;;;25.80;15.03;;;-2.30;99.90;;;;;;5027543;28;20273;-70
2021/12/27 09:50:36;;;;;;;25.50;15.50;;;-2.30;99.90;;;;;;5026662;28;20266;-70
2021/12/27 09:53:03;;;;;;;26.13;15.10;;;-2.30;99.90;;;;;;5025364;28;20200;-70
2021/12/27 09:55:30;;;;;;;26.50;14.77;;;-2.20;99.90;;;;;;5026735;28;20225;-70
2021/12/27 09:57:57;;;;;;;24.83;15.33;;;-2.30;99.90;;;;;;5026308;28;20243;-70
2021/12/27 10:00:24;;;;;;;26.80;16.00;;;-2.30;99.90;;;;;;5026876;28;20270;-70
2021/12/27 10:02:54;;;;;;;23.33;14.57;;;-2.20;99.90;;;;;;5026665;28;20212;-70
2021/12/27 10:05:22;;;;;;;29.13;15.67;;;-2.20;99.90;;;;;;5026430;28;20256;-70
2021/12/27 10:07:48;;;;;;;25.10;15.20;;;-2.20;99.90;;;;;;5026194;28;20213;-70
2021/12/27 10:10:15;;;;;;;23.77;13.77;;;-2.10;99.90;;;;;;5026328;28;20269;-69
2021/12/27 10:12:42;;;;;;;26.87;14.93;;;-2.10;99.90;;;;;;5026595;28;20211;-69
2021/12/27 10:15:11;;;;;;;26.37;16.07;;;-2.00;99.90;;;;;;5026241;28;20207;-70
2021/12/27 10:17:39;;;;;;;24.37;15.63;;;-1.90;99.90;;;;;;5025446;28;20716;-70
2021/12/27 10:20:16;;;;;;;27.97;15.97;;;-1.90;99.90;;;;;;5019645;28;20209;-71
2021/12/27 10:22:44;;;;;;;28.17;16.00;;;-1.90;99.90;;;;;;5010763;28;20208;-70
2021/12/27 10:25:15;;;;;;;23.93;15.00;;;-1.80;99.90;;;;;;5013460;28;20223;-70
2021/12/27 10:27:42;;;;;;;26.60;15.77;;;-1.80;99.90;;;;;;5026349;28;20212;-70
2021/12/27 10:30:13;;;;;;;26.63;14.87;;;-1.80;99.90;;;;;;5025799;28;20301;-70
2021/12/27 10:32:40;;;;;;;25.77;15.20;;;-1.70;99.90;;;;;;5025419;28;20203;-67
2021/12/27 10:35:08;;;;;;;26.00;15.40;;;-1.70;99.90;;;;;;5025631;28;20231;-67
2021/12/27 10:37:37;;;;;;;24.33;14.83;;;-1.60;99.90;;;;;;5025451;28;20283;-71
2021/12/27 10:40:06;;;;;;;22.50;14.57;;;-1.60;99.90;;;;;;5029128;28;20244;-71
2021/12/27 10:42:36;;;;;;;24.97;14.87;;;-1.60;99.90;;;;;;5029732;28;20212;-71
2021/12/27 10:45:06;;;;;;;25.73;15.30;;;-1.50;99.90;;;;;;5029641;28;20205;-70
2021/12/27 10:47:40;;;;;;;25.43;15.80;;;-1.50;99.90;;;;;;5029643;28;20200;-70
2021/12/27 10:50:13;;;;;;;25.20;16.03;;;-1.50;99.90;;;;;;5029614;28;20201;-70
2021/12/27 10:52:42;;;;;;;23.87;15.30;;;-1.50;99.90;;;;;;5029519;28;20207;-71
2021/12/27 10:55:09;;;;;;;26.00;15.07;;;-1.50;99.90;;;;;;5029483;28;20205;-70
2021/12/27 10:57:36;;;;;;;25.70;15.37;;;-1.50;99.90;;;;;;5029356;28;20248;-71
2021/12/27 11:00:30;;;;;;;27.20;15.30;;;-1.50;99.90;;;;;;5029544;28;20255;-70
2021/12/27 11:03:02;;;;;;;24.97;15.53;;;-1.50;99.90;;;;;;4993920;28;20216;-70
2021/12/27 11:05:30;;;;;;;22.40;14.83;;;-1.40;99.90;;;;;;5029186;28;20200;-70
2021/12/27 11:08:01;;;;;;;26.93;15.40;;;-1.40;99.90;;;;;;5029063;28;20216;-71
2021/12/27 11:10:30;;;;;;;25.33;14.70;;;-1.40;99.90;;;;;;5029108;28;20284;-71
2021/12/27 11:12:59;;;;;;;25.33;15.33;;;-1.40;99.90;;;;;;5028770;28;20235;-70
2021/12/27 11:15:27;;;;;;;26.50;14.43;;;-1.40;99.90;;;;;;5029167;28;20310;-70
2021/12/27 11:17:54;;;;;;;25.53;15.60;;;-1.30;99.90;;;;;;5028792;28;20788;-71
2021/12/27 11:20:21;;;;;;;25.87;14.50;;;-1.30;99.90;;;;;;5029158;28;20296;-70
2021/12/27 11:22:52;;;;;;;23.87;14.47;;;-1.30;99.90;;;;;;5029068;28;20274;-70
2021/12/27 11:25:31;;;;;;;25.50;15.30;;;-1.20;99.90;;;;;;5028845;28;20574;-70
2021/12/27 11:27:58;;;;;;;21.37;13.70;;;-1.20;99.90;;;;;;5028712;28;20286;-70
2021/12/27 11:30:28;;;;;;;22.53;13.90;;;-1.20;99.90;;;;;;5025968;28;20258;-70
2021/12/27 11:33:12;;;;;;;22.43;13.90;;;-1.10;99.90;;;;;;5027113;28;20682;-70
2021/12/27 11:36:01;;;;;;;25.37;13.97;;;-1.10;99.90;;;;;;5027380;28;20270;-70
2021/12/27 11:38:30;;;;;;;22.77;14.27;;;-1.10;99.90;;;;;;5025082;28;20335;-70
2021/12/27 11:40:58;;;;;;;23.67;14.13;;;-1.10;99.90;;;;;;5028070;28;20200;-70
2021/12/27 11:43:25;;;;;;;23.80;14.33;;;-1.00;99.90;;;;;;5028360;28;20208;-68
2021/12/27 11:45:54;;;;;;;23.27;14.83;;;-1.10;99.90;;;;;;5027694;28;20666;-69
2021/12/27 11:48:23;;;;;;;20.93;13.97;;;-1.00;99.90;;;;;;5028022;28;20216;-68
2021/12/27 11:51:10;;;;;;;22.70;15.00;;;-1.00;99.90;;;;;;5024710;28;20614;-70
2021/12/27 11:53:44;;;;;;;23.27;13.70;;;-1.00;99.90;;;;;;5024140;28;20212;-70
2021/12/27 11:56:18;;;;;;;24.90;14.07;;;-1.00;99.90;;;;;;5024519;28;20230;-70
2021/12/27 11:58:48;;;;;;;20.60;13.57;;;-0.90;99.90;;;;;;5024309;28;20236;-70
2021/12/27 12:01:38;;;;;;;25.53;14.83;;;-1.00;99.90;;;;;;5024089;28;20203;-70
2021/12/27 12:04:05;;;;;;;23.13;13.90;;;-0.90;99.90;;;;;;5021193;28;20666;-70
2021/12/27 12:06:40;;;;;;;23.33;14.10;;;-0.90;99.90;;;;;;5024403;28;20426;-70
2021/12/27 12:09:12;;;;;;;21.83;13.77;;;-0.90;99.90;;;;;;5023562;28;20243;-70
2021/12/27 12:11:40;;;;;;;20.97;13.40;;;-0.90;99.90;;;;;;5021950;28;20208;-70
2021/12/27 12:14:30;;;;;;;22.57;14.47;;;-0.90;99.90;;;;;;5023751;28;20228;-70
2021/12/27 12:16:58;;;;;;;24.47;14.30;;;-0.90;99.90;;;;;;5021629;28;20220;-70
2021/12/27 12:19:42;;;;;;;24.13;14.67;;;-0.90;99.90;;;;;;5023072;28;20204;-70
2021/12/27 12:22:34;;;;;;;22.00;13.57;;;-0.90;99.90;;;;;;5021405;28;20656;-70
2021/12/27 12:25:17;;;;;;;25.37;14.23;;;-0.90;99.90;;;;;;5022504;28;20206;-70
2021/12/27 12:28:00;;;;;;;23.57;14.07;;;-0.80;99.90;;;;;;5023247;28;20192;-70
2021/12/27 12:30:32;;;;;;;26.27;14.03;;;-0.80;99.90;;;;;;5020935;28;20205;-70
2021/12/27 12:33:01;;;;;;;21.50;13.63;;;-0.80;99.90;;;;;;5023224;28;20185;-71
2021/12/27 12:35:40;;;;;;;19.87;12.87;;;-0.80;99.90;;;;;;5023930;28;20228;-70